createdAt,value
2018-12-25T00:00:44.876Z,84.47
2018-12-25T00:01:44.862Z,84.64
2018-12-25T00:03:56.106Z,84.53
2018-12-25T00:04:56.059Z,84.47
2018-12-25T00:05:56.059Z,84.43
2018-12-25T00:06:56.074Z,84.22
2018-12-25T00:07:56.026Z,84.33
2018-12-25T00:08:56.010Z,84.64
2018-12-25T00:09:56.035Z,84.53
2018-12-25T00:10:56.033Z,84.64
2018-12-25T00:11:55.976Z,84.33
2018-12-25T00:12:56.019Z,84.05
2018-12-25T00:13:55.952Z,83.50
2018-12-25T00:14:55.963Z,83.50
2018-12-25T00:15:55.930Z,83.53
2018-12-25T00:16:55.977Z,84.27
2018-12-25T00:17:55.948Z,84.12
2018-12-25T00:18:55.968Z,83.39
2018-12-25T00:19:55.914Z,83.70
2018-12-25T00:20:55.877Z,83.50
2018-12-25T00:21:55.891Z,83.39
2018-12-25T00:22:55.858Z,84.12
2018-12-25T00:23:55.891Z,84.19
2018-12-25T00:24:55.987Z,83.87
2018-12-25T00:25:55.823Z,83.04
2018-12-25T00:26:55.862Z,82.84
2018-12-25T00:27:55.817Z,82.32
2018-12-25T00:28:55.824Z,81.38
2018-12-25T00:29:55.785Z,81.49
2018-12-25T00:30:55.807Z,81.28
2018-12-25T00:31:55.791Z,81.38
2018-12-25T00:32:55.791Z,80.97
2018-12-25T00:33:55.750Z,80.66
2018-12-25T00:34:55.864Z,80.55
2018-12-25T00:35:55.722Z,80.35
2018-12-25T00:36:55.756Z,80.14
2018-12-25T00:37:55.700Z,80.55
2018-12-25T00:38:55.760Z,80.97
2018-12-25T00:39:55.677Z,80.87
2018-12-25T00:40:55.664Z,80.87
2018-12-25T00:41:55.651Z,80.76
2018-12-25T00:42:55.660Z,80.76
2018-12-25T00:43:55.647Z,80.66
2018-12-25T00:44:55.621Z,81.18
2018-12-25T00:45:55.614Z,80.97
2018-12-25T00:46:55.618Z,80.55
2018-12-25T00:47:55.630Z,80.55
2018-12-25T00:48:55.583Z,80.55
2018-12-25T00:49:55.571Z,80.87
2018-12-25T00:50:55.555Z,80.76
2018-12-25T00:51:55.546Z,80.35
2018-12-25T00:53:04.109Z,81.28
2018-12-25T00:53:55.525Z,81.07
2018-12-25T00:54:55.521Z,81.49
2018-12-25T00:55:55.535Z,81.21
2018-12-25T00:56:55.498Z,81.52
2018-12-25T00:57:55.508Z,81.63
2018-12-25T00:58:55.476Z,81.01
2018-12-25T00:59:55.469Z,81.52
2018-12-25T01:00:55.561Z,81.32
2018-12-25T01:01:55.480Z,81.21
2018-12-25T01:02:55.465Z,81.32
2018-12-25T01:03:55.464Z,81.84
2018-12-25T01:04:55.406Z,81.42
2018-12-25T01:05:55.434Z,81.84
2018-12-25T01:06:55.391Z,81.52
2018-12-25T01:07:55.398Z,81.38
2018-12-25T01:08:55.372Z,81.52
2018-12-25T01:09:55.401Z,81.52
2018-12-25T01:10:55.345Z,81.52
2018-12-25T01:11:55.339Z,81.52
2018-12-25T01:12:55.342Z,81.52
2018-12-25T01:13:55.312Z,81.52
2018-12-25T01:14:55.313Z,81.52
2018-12-25T01:15:55.292Z,81.11
2018-12-25T01:17:04.294Z,80.90
2018-12-25T01:17:55.269Z,81.49
2018-12-25T01:19:02.798Z,81.28
2018-12-25T01:20:02.798Z,81.01
2018-12-25T01:21:02.811Z,81.07
2018-12-25T01:21:55.228Z,81.07
2018-12-25T01:23:04.964Z,80.97
2018-12-25T01:23:55.217Z,81.52
2018-12-25T01:24:55.246Z,81.18
2018-12-25T01:25:55.191Z,81.42
2018-12-25T01:26:55.244Z,81.38
2018-12-25T01:27:55.193Z,81.49
2018-12-25T01:28:55.163Z,81.01
2018-12-25T01:29:55.149Z,81.42
2018-12-25T01:30:55.139Z,81.42
2018-12-25T01:31:55.124Z,81.32
2018-12-25T01:32:55.132Z,81.49
2018-12-25T01:33:55.103Z,80.90
2018-12-25T01:34:55.092Z,81.52
2018-12-25T01:35:55.112Z,81.59
2018-12-25T01:36:55.070Z,80.55
2018-12-25T01:37:55.056Z,80.38
2018-12-25T01:38:55.076Z,81.11
2018-12-25T01:39:55.198Z,81.38
2018-12-25T01:40:55.027Z,81.42
2018-12-25T01:41:55.013Z,81.18
2018-12-25T01:42:55.007Z,81.38
2018-12-25T01:43:55.032Z,81.28
2018-12-25T01:44:54.990Z,81.59
2018-12-25T01:45:54.978Z,80.97
2018-12-25T01:46:54.992Z,81.18
2018-12-25T01:47:54.957Z,81.38
2018-12-25T01:48:54.986Z,81.38
2018-12-25T01:49:54.933Z,81.49
2018-12-25T01:50:54.927Z,81.70
2018-12-25T01:51:54.913Z,81.32
2018-12-25T01:52:54.903Z,81.28
2018-12-25T01:53:54.904Z,81.70
2018-12-25T01:54:54.876Z,81.80
2018-12-25T01:55:54.867Z,81.90
2018-12-25T01:56:54.859Z,82.42
2018-12-25T01:57:54.856Z,81.90
2018-12-25T01:58:54.892Z,82.53
2018-12-25T01:59:54.836Z,81.59
2018-12-25T02:00:54.844Z,82.21
2018-12-25T02:01:54.814Z,82.32
2018-12-25T02:02:54.791Z,82.32
2018-12-25T02:03:54.781Z,82.42
2018-12-25T02:04:54.791Z,82.32
2018-12-25T02:05:54.782Z,82.01
2018-12-25T02:06:54.750Z,82.11
2018-12-25T02:07:54.740Z,82.94
2018-12-25T02:08:54.738Z,82.53
2018-12-25T02:09:54.743Z,82.53
2018-12-25T02:10:54.712Z,82.94
2018-12-25T02:11:54.701Z,83.04
2018-12-25T02:12:54.688Z,83.04
2018-12-25T02:13:54.676Z,82.84
2018-12-25T02:14:54.695Z,83.15
2018-12-25T02:15:54.673Z,83.04
2018-12-25T02:16:54.659Z,83.04
2018-12-25T02:17:54.655Z,82.63
2018-12-25T02:18:54.623Z,82.73
2018-12-25T02:19:54.632Z,83.15
2018-12-25T02:20:54.607Z,82.63
2018-12-25T02:21:54.592Z,82.94
2018-12-25T02:22:54.580Z,83.04
2018-12-25T02:23:54.608Z,83.15
2018-12-25T02:24:54.593Z,82.73
2018-12-25T02:25:54.551Z,82.87
2018-12-25T02:26:54.542Z,82.63
2018-12-25T02:27:54.531Z,82.94
2018-12-25T02:28:54.524Z,83.67
2018-12-25T02:29:54.517Z,83.04
2018-12-25T02:30:54.534Z,83.60
2018-12-25T02:31:54.535Z,83.56
2018-12-25T02:32:54.501Z,83.46
2018-12-25T02:33:54.500Z,84.08
2018-12-25T02:34:54.471Z,83.70
2018-12-25T02:35:54.473Z,84.12
2018-12-25T02:36:54.441Z,84.01
2018-12-25T02:37:54.460Z,84.12
2018-12-25T02:38:54.416Z,84.01
2018-12-25T02:39:54.412Z,84.12
2018-12-25T02:40:54.418Z,84.01
2018-12-25T02:41:54.416Z,84.12
2018-12-25T02:42:54.369Z,83.67
2018-12-25T02:43:54.419Z,83.98
2018-12-25T02:44:54.347Z,83.56
2018-12-25T02:45:54.356Z,83.46
2018-12-25T02:46:54.347Z,83.15
2018-12-25T02:47:54.327Z,83.25
2018-12-25T02:48:54.315Z,83.25
2018-12-25T02:49:54.298Z,83.15
2018-12-25T02:50:54.312Z,82.94
2018-12-25T02:51:54.288Z,82.84
2018-12-25T02:52:54.263Z,83.04
2018-12-25T02:53:54.262Z,82.84
2018-12-25T02:54:54.267Z,82.46
2018-12-25T02:55:54.242Z,82.53
2018-12-25T02:56:54.267Z,82.63
2018-12-25T02:57:54.222Z,82.01
2018-12-25T02:58:54.201Z,82.01
2018-12-25T02:59:54.190Z,81.90
2018-12-25T03:00:54.185Z,82.11
2018-12-25T03:01:54.191Z,81.38
2018-12-25T03:02:54.165Z,81.38
2018-12-25T03:03:54.157Z,81.28
2018-12-25T03:04:54.164Z,80.87
2018-12-25T03:05:54.131Z,81.38
2018-12-25T03:06:54.136Z,81.49
2018-12-25T03:07:54.117Z,80.97
2018-12-25T03:08:54.094Z,80.87
2018-12-25T03:09:54.159Z,81.45
2018-12-25T03:10:54.104Z,81.07
2018-12-25T03:11:54.123Z,80.45
2018-12-25T03:12:54.053Z,80.04
2018-12-25T03:13:54.055Z,80.62
2018-12-25T03:14:54.037Z,80.21
2018-12-25T03:15:54.044Z,80.66
2018-12-25T03:16:54.056Z,80.76
2018-12-25T03:17:54.008Z,80.62
2018-12-25T03:18:53.997Z,81.14
2018-12-25T03:19:59.838Z,80.41
2018-12-25T03:20:55.001Z,80.52
2018-12-25T03:21:53.979Z,80.52
2018-12-25T03:22:53.982Z,80.10
2018-12-25T03:23:53.943Z,80.52
2018-12-25T03:24:53.938Z,80.52
2018-12-25T03:25:53.922Z,80.10
2018-12-25T03:26:53.962Z,80.62
2018-12-25T03:27:53.930Z,80.21
2018-12-25T03:28:54.077Z,80.21
2018-12-25T03:29:53.932Z,80.10
2018-12-25T03:30:53.869Z,80.10
2018-12-25T03:31:53.999Z,80.31
2018-12-25T03:32:53.863Z,80.00
2018-12-25T03:33:53.840Z,80.00
2018-12-25T03:34:53.822Z,79.90
2018-12-25T03:35:53.812Z,79.90
2018-12-25T03:36:53.801Z,80.00
2018-12-25T03:37:53.836Z,80.31
2018-12-25T03:38:53.789Z,80.10
2018-12-25T03:39:53.787Z,79.90
2018-12-25T03:40:53.759Z,80.10
2018-12-25T03:41:53.752Z,80.00
2018-12-25T03:42:53.755Z,80.41
2018-12-25T03:43:53.726Z,79.79
2018-12-25T03:44:53.730Z,78.75
2018-12-25T03:45:53.743Z,78.34
2018-12-25T03:46:53.698Z,77.82
2018-12-25T03:47:53.714Z,78.86
2018-12-25T03:48:53.691Z,80.00
2018-12-25T03:49:53.662Z,79.44
2018-12-25T03:51:01.207Z,78.92
2018-12-25T03:52:01.232Z,78.92
2018-12-25T03:53:01.214Z,78.65
2018-12-25T03:54:02.179Z,78.75
2018-12-25T03:55:01.160Z,77.72
2018-12-25T03:55:53.597Z,77.61
2018-12-25T03:56:53.601Z,77.37
2018-12-25T03:57:53.585Z,77.37
2018-12-25T03:58:53.583Z,77.68
2018-12-25T04:00:01.113Z,77.68
2018-12-25T04:00:53.548Z,77.58
2018-12-25T04:02:02.358Z,77.37
2018-12-25T04:03:01.082Z,77.37
2018-12-25T04:04:02.235Z,77.58
2018-12-25T04:05:01.079Z,77.40
2018-12-25T04:06:01.078Z,76.64
2018-12-25T04:06:53.479Z,76.54
2018-12-25T04:07:53.475Z,76.75
2018-12-25T04:09:01.015Z,76.33
2018-12-25T04:10:01.427Z,76.23
2018-12-25T04:11:00.982Z,76.33
2018-12-25T04:12:02.008Z,76.43
2018-12-25T04:13:02.459Z,76.12
2018-12-25T04:14:01.976Z,75.40
2018-12-25T04:15:02.073Z,75.40
2018-12-25T04:15:53.386Z,76.23
2018-12-25T04:17:00.922Z,76.33
2018-12-25T04:17:53.361Z,76.12
2018-12-25T04:18:53.353Z,76.02
2018-12-25T04:19:53.353Z,75.09
2018-12-25T04:20:53.373Z,74.57
2018-12-25T04:21:53.320Z,74.57
2018-12-25T04:22:53.313Z,74.67
2018-12-25T04:24:01.508Z,74.67
2018-12-25T04:24:53.291Z,74.95
2018-12-25T04:25:53.317Z,75.15
2018-12-25T04:26:53.267Z,74.32
2018-12-25T04:27:53.260Z,74.63
2018-12-25T04:28:53.264Z,74.63
2018-12-25T04:29:53.239Z,74.74
2018-12-25T04:30:53.247Z,74.63
2018-12-25T04:31:53.254Z,74.22
2018-12-25T04:32:53.243Z,74.32
2018-12-25T04:33:53.204Z,74.63
2018-12-25T04:34:53.197Z,74.53
2018-12-25T04:35:53.218Z,74.74
2018-12-25T04:36:53.236Z,74.74
2018-12-25T04:37:53.193Z,74.53
2018-12-25T04:39:00.703Z,73.39
2018-12-25T04:40:01.039Z,73.49
2018-12-25T04:41:00.663Z,73.70
2018-12-25T04:42:00.692Z,73.39
2018-12-25T04:42:53.097Z,73.08
2018-12-25T04:44:00.689Z,73.28
2018-12-25T04:44:53.077Z,73.08
2018-12-25T04:45:53.069Z,73.28
2018-12-25T04:46:53.066Z,72.98
2018-12-25T04:47:53.090Z,73.08
2018-12-25T04:48:53.035Z,73.39
2018-12-25T04:49:53.022Z,73.18
2018-12-25T04:50:53.038Z,73.18
2018-12-25T04:51:53.039Z,73.39
2018-12-25T04:52:53.006Z,73.28
2018-12-25T04:53:52.981Z,73.18
2018-12-25T04:54:52.979Z,73.08
2018-12-25T04:55:53.009Z,73.08
2018-12-25T04:57:00.535Z,73.39
2018-12-25T04:57:52.959Z,73.46
2018-12-25T04:58:52.927Z,73.46
2018-12-25T04:59:52.912Z,73.28
2018-12-25T05:00:52.924Z,73.28
2018-12-25T05:01:52.895Z,73.08
2018-12-25T05:02:52.891Z,73.18
2018-12-25T05:03:52.912Z,72.98
2018-12-25T05:04:52.864Z,73.49
2018-12-25T05:05:52.858Z,73.28
2018-12-25T05:06:52.843Z,73.28
2018-12-25T05:07:52.850Z,73.08
2018-12-25T05:08:52.859Z,73.28
2018-12-25T05:09:52.816Z,73.05
2018-12-25T05:10:52.842Z,73.28
2018-12-25T05:11:52.786Z,73.18
2018-12-25T05:12:52.922Z,72.77
2018-12-25T05:13:52.785Z,72.77
2018-12-25T05:14:52.761Z,72.77
2018-12-25T05:15:52.756Z,73.08
2018-12-25T05:16:52.731Z,73.15
2018-12-25T05:17:52.730Z,73.08
2018-12-25T05:18:52.735Z,73.18
2018-12-25T05:19:52.696Z,73.39
2018-12-25T05:20:52.716Z,73.15
2018-12-25T05:21:52.693Z,73.25
2018-12-25T05:22:52.691Z,73.36
2018-12-25T05:23:52.655Z,73.25
2018-12-25T05:24:52.669Z,73.15
2018-12-25T05:25:52.667Z,73.15
2018-12-25T05:26:52.629Z,73.25
2018-12-25T05:27:52.619Z,73.15
2018-12-25T05:28:52.608Z,73.67
2018-12-25T05:29:52.638Z,74.08
2018-12-25T05:30:52.598Z,73.67
2018-12-25T05:31:52.590Z,73.46
2018-12-25T05:32:52.561Z,73.57
2018-12-25T05:33:52.551Z,73.63
2018-12-25T05:34:52.579Z,72.60
2018-12-25T05:35:52.525Z,72.11
2018-12-25T05:36:52.523Z,72.39
2018-12-25T05:37:52.528Z,72.11
2018-12-25T05:38:52.493Z,72.32
2018-12-25T05:39:52.564Z,72.22
2018-12-25T05:40:52.572Z,71.70
2018-12-25T05:41:52.463Z,71.91
2018-12-25T05:42:52.470Z,71.59
2018-12-25T05:43:52.444Z,71.70
2018-12-25T05:44:52.460Z,72.11
2018-12-25T05:45:52.440Z,72.50
2018-12-25T05:46:52.405Z,72.29
2018-12-25T05:47:52.395Z,72.39
2018-12-25T05:48:52.388Z,73.22
2018-12-25T05:49:52.369Z,72.81
2018-12-25T05:50:52.402Z,72.71
2018-12-25T05:51:52.348Z,72.91
2018-12-25T05:52:52.375Z,72.60
2018-12-25T05:53:52.335Z,72.91
2018-12-25T05:54:52.320Z,73.01
2018-12-25T05:55:52.321Z,73.43
2018-12-25T05:56:52.298Z,74.26
2018-12-25T05:57:52.293Z,74.26
2018-12-25T05:58:52.273Z,75.09
2018-12-25T05:59:52.323Z,75.92
2018-12-25T06:00:52.294Z,75.53
2018-12-25T06:01:52.236Z,75.71
2018-12-25T06:02:59.777Z,74.57
2018-12-25T06:03:52.224Z,74.67
2018-12-25T06:05:45.138Z,74.98
2018-12-25T06:06:45.084Z,75.92
2018-12-25T06:07:45.012Z,74.98
2018-12-25T06:08:44.975Z,75.19
2018-12-25T06:09:45.008Z,74.26
2018-12-25T06:10:44.953Z,74.46
2018-12-25T06:11:45.033Z,74.46
2018-12-25T06:12:44.915Z,74.67
2018-12-25T06:13:44.929Z,74.77
2018-12-25T06:14:44.890Z,74.05
2018-12-25T06:15:44.906Z,73.94
2018-12-25T06:16:44.868Z,73.22
2018-12-25T06:17:44.986Z,73.63
2018-12-25T06:18:44.878Z,73.11
2018-12-25T06:19:44.849Z,72.39
2018-12-25T06:20:55.227Z,72.50
2018-12-25T06:21:44.843Z,72.50
2018-12-25T06:22:53.868Z,72.39
2018-12-25T06:23:44.924Z,73.43
2018-12-25T06:25:55.108Z,74.46
2018-12-25T06:27:03.249Z,74.67
2018-12-25T06:27:55.163Z,74.57
2018-12-25T06:29:03.628Z,74.46
2018-12-25T06:30:05.084Z,74.67
2018-12-25T06:31:02.625Z,74.74
2018-12-25T06:31:55.081Z,74.98
2018-12-25T06:32:54.965Z,75.81
2018-12-25T06:33:55.043Z,76.64
2018-12-25T06:34:55.019Z,76.02
2018-12-25T06:35:54.971Z,73.63
2018-12-25T06:36:54.903Z,72.81
2018-12-25T06:37:54.961Z,73.01
2018-12-25T06:38:54.913Z,73.32
2018-12-25T06:39:54.916Z,73.32
2018-12-25T06:40:54.878Z,74.46
2018-12-25T06:41:54.949Z,77.36
2018-12-25T06:44:05.272Z,77.88
2018-12-25T06:45:05.216Z,78.09
2018-12-25T06:46:05.157Z,78.71
2018-12-25T06:47:05.086Z,78.50
2018-12-25T06:48:05.077Z,78.81
2018-12-25T06:49:05.048Z,78.92
2018-12-25T06:51:24.378Z,77.78
2018-12-25T06:52:24.285Z,76.53
2018-12-25T06:53:24.207Z,76.43
2018-12-25T06:54:24.246Z,76.12
2018-12-25T06:56:34.625Z,75.71
2018-12-25T06:57:34.581Z,75.19
2018-12-25T06:59:44.804Z,76.02
2018-12-25T07:01:56.781Z,76.23
2018-12-25T07:08:11.011Z,72.25
2018-12-25T07:11:30.619Z,72.67
2018-12-25T07:14:06.931Z,72.50
2018-12-25T07:15:06.814Z,71.73
2018-12-25T07:16:06.719Z,71.53
2018-12-25T07:17:20.203Z,70.84
2018-12-25T07:18:06.691Z,71.33
2018-12-25T07:19:16.700Z,71.43
2018-12-25T07:20:06.956Z,71.33
2018-12-25T07:22:27.153Z,71.22
2018-12-25T07:23:26.839Z,71.94
2018-12-25T07:24:26.801Z,71.84
2018-12-25T07:25:26.782Z,71.94
2018-12-25T07:26:37.014Z,71.15
2018-12-25T07:28:46.871Z,70.81
2018-12-25T07:29:56.404Z,70.60
2018-12-25T07:31:59.649Z,70.60
2018-12-25T07:34:10.850Z,71.53
2018-12-25T07:35:10.642Z,70.91
2018-12-25T07:36:10.800Z,71.01
2018-12-25T07:37:19.320Z,70.91
2018-12-25T07:38:10.785Z,70.91
2018-12-25T07:40:22.986Z,70.50
2018-12-25T07:41:22.845Z,70.60
2018-12-25T07:42:30.516Z,70.70
2018-12-25T07:43:22.891Z,70.50
2018-12-25T07:45:40.782Z,70.60
2018-12-25T07:48:13.063Z,71.12
2018-12-25T07:50:24.052Z,71.12
2018-12-25T07:52:52.971Z,71.22
2018-12-25T07:55:28.724Z,70.91
2018-12-25T07:57:51.484Z,71.43
2018-12-25T07:58:51.314Z,71.22
2018-12-25T08:00:01.251Z,71.12
2018-12-25T08:01:01.277Z,71.22
2018-12-25T08:02:00.245Z,70.70
2018-12-25T08:04:10.386Z,71.53
2018-12-25T08:05:09.975Z,71.43
2018-12-25T08:06:10.239Z,71.22
2018-12-25T08:07:09.953Z,70.81
2018-12-25T08:08:09.974Z,70.81
2018-12-25T08:09:09.958Z,71.22
2018-12-25T08:10:09.939Z,71.43
2018-12-25T08:11:09.947Z,71.36
2018-12-25T08:12:09.945Z,71.01
2018-12-25T08:14:40.090Z,71.53
2018-12-25T08:15:40.250Z,71.33
2018-12-25T08:16:49.804Z,71.01
2018-12-25T08:17:39.960Z,71.25
2018-12-25T08:18:48.781Z,71.22
2018-12-25T08:19:39.962Z,71.12
2018-12-25T08:20:39.909Z,70.60
2018-12-25T08:21:39.897Z,70.50
2018-12-25T08:22:40.117Z,70.91
2018-12-25T08:23:39.838Z,70.67
2018-12-25T08:24:39.844Z,70.77
2018-12-25T08:25:39.807Z,71.19
2018-12-25T08:26:39.814Z,71.33
2018-12-25T08:27:39.829Z,71.12
2018-12-25T08:28:49.043Z,71.33
2018-12-25T08:29:39.820Z,71.33
2018-12-25T08:30:39.874Z,70.77
2018-12-25T08:33:12.760Z,70.57
2018-12-25T08:34:12.853Z,70.67
2018-12-25T08:35:12.731Z,70.57
2018-12-25T08:36:20.340Z,70.47
2018-12-25T08:37:12.733Z,70.50
2018-12-25T08:38:12.750Z,70.57
2018-12-25T08:39:12.667Z,70.57
2018-12-25T08:40:12.796Z,70.98
2018-12-25T08:41:12.686Z,70.26
2018-12-25T08:42:12.590Z,70.60
2018-12-25T08:43:22.681Z,71.43
2018-12-25T08:44:12.651Z,71.08
2018-12-25T08:45:12.592Z,71.29
2018-12-25T08:46:12.610Z,70.36
2018-12-25T08:47:12.560Z,70.81
2018-12-25T08:48:12.549Z,70.50
2018-12-25T08:49:21.655Z,70.47
2018-12-25T08:51:46.210Z,70.67
2018-12-25T08:52:56.256Z,70.87
2018-12-25T08:53:55.003Z,70.05
2018-12-25T08:54:45.807Z,69.64
2018-12-25T08:55:47.341Z,69.84
2018-12-25T08:58:05.999Z,69.84
2018-12-25T08:59:05.916Z,70.15
2018-12-25T09:01:23.194Z,69.40
2018-12-25T09:03:45.605Z,69.50
2018-12-25T09:06:01.960Z,69.29
2018-12-25T09:07:02.037Z,69.40
2018-12-25T09:08:10.515Z,69.29
2018-12-25T09:09:01.936Z,69.19
2018-12-25T09:10:01.855Z,69.37
2018-12-25T09:11:01.860Z,69.40
2018-12-25T09:12:01.837Z,69.37
2018-12-25T09:13:01.795Z,69.37
2018-12-25T09:14:01.872Z,68.33
2018-12-25T09:15:01.781Z,68.02
2018-12-25T09:16:01.805Z,67.82
2018-12-25T09:17:01.923Z,67.50
2018-12-25T09:18:01.822Z,68.02
2018-12-25T09:19:01.792Z,67.82
2018-12-25T09:21:21.617Z,68.02
2018-12-25T09:22:21.544Z,68.33
2018-12-25T09:23:21.496Z,67.82
2018-12-25T09:24:21.535Z,68.12
2018-12-25T09:25:21.552Z,67.61
2018-12-25T09:26:32.961Z,67.50
2018-12-25T09:27:21.556Z,68.12
2018-12-25T09:28:21.611Z,68.09
2018-12-25T09:29:21.473Z,67.99
2018-12-25T09:31:42.168Z,69.23
2018-12-25T09:32:49.861Z,68.51
2018-12-25T09:33:49.640Z,67.78
2018-12-25T09:34:42.030Z,68.71
2018-12-25T09:38:39.511Z,66.85
2018-12-25T09:39:39.449Z,66.85
2018-12-25T09:40:39.372Z,67.37
2018-12-25T09:43:27.385Z,66.85
2018-12-25T09:45:50.715Z,66.75
2018-12-25T09:46:50.721Z,66.85
2018-12-25T09:47:50.693Z,66.26
2018-12-25T09:48:50.915Z,67.58
2018-12-25T09:51:10.639Z,67.37
2018-12-25T09:52:20.743Z,66.93
2018-12-25T09:53:10.575Z,66.30
2018-12-25T09:55:29.404Z,66.93
2018-12-25T09:57:40.392Z,66.61
2018-12-25T10:01:54.427Z,67.82
2018-12-25T10:02:54.308Z,66.58
2018-12-25T10:03:54.299Z,67.61
2018-12-25T10:04:54.240Z,67.41
2018-12-25T10:05:54.215Z,70.09
2018-12-25T10:06:54.192Z,71.54
2018-12-25T10:07:54.360Z,72.16
2018-12-25T10:10:18.029Z,72.36
2018-12-25T10:11:26.058Z,71.44
2018-12-25T10:12:18.011Z,71.54
2018-12-25T10:13:25.918Z,71.23
2018-12-25T10:14:17.981Z,70.40
2018-12-25T10:15:17.938Z,69.24
2018-12-25T10:16:17.817Z,68.30
2018-12-25T10:17:17.870Z,66.79
2018-12-25T10:18:17.852Z,66.97
2018-12-25T10:19:17.797Z,66.86
2018-12-25T10:20:17.885Z,66.66
2018-12-25T10:21:17.761Z,67.00
2018-12-25T10:22:17.776Z,67.00
2018-12-25T10:23:17.824Z,66.17
2018-12-25T10:24:17.725Z,66.86
2018-12-25T10:25:17.719Z,66.55
2018-12-25T10:26:29.830Z,66.38
2018-12-25T10:27:26.652Z,66.24
2018-12-25T10:28:17.755Z,66.38
2018-12-25T10:29:17.793Z,66.07
2018-12-25T10:30:17.668Z,66.14
2018-12-25T10:31:28.992Z,66.17
2018-12-25T10:32:17.773Z,66.38
2018-12-25T10:33:17.662Z,66.17
2018-12-25T10:34:17.673Z,66.17
2018-12-25T10:35:17.692Z,65.97
2018-12-25T10:36:17.691Z,66.35
2018-12-25T10:37:17.641Z,66.24
2018-12-25T10:38:17.610Z,66.14
2018-12-25T10:39:17.609Z,66.48
2018-12-25T10:40:17.564Z,65.86
2018-12-25T10:41:17.579Z,65.24
2018-12-25T10:42:17.589Z,65.97
2018-12-25T10:43:17.546Z,65.94
2018-12-25T10:44:17.564Z,65.66
2018-12-25T10:45:17.545Z,65.66
2018-12-25T10:46:17.493Z,65.14
2018-12-25T10:47:17.567Z,64.93
2018-12-25T10:48:17.670Z,64.52
2018-12-25T10:49:17.832Z,65.00
2018-12-25T10:50:17.540Z,65.34
2018-12-25T10:51:17.454Z,64.90
2018-12-25T10:52:27.003Z,64.80
2018-12-25T10:53:17.451Z,64.59
2018-12-25T10:54:17.472Z,65.03
2018-12-25T10:55:17.441Z,65.31
2018-12-25T10:56:17.385Z,64.62
2018-12-25T10:57:17.379Z,65.42
2018-12-25T10:58:30.064Z,65.11
2018-12-25T10:59:17.386Z,65.31
2018-12-25T11:00:17.350Z,65.52
2018-12-25T11:01:17.436Z,65.83
2018-12-25T11:02:17.321Z,65.21
2018-12-25T11:03:17.334Z,64.59
2018-12-25T11:04:17.371Z,65.42
2018-12-25T11:05:17.355Z,64.80
2018-12-25T11:06:17.336Z,64.39
2018-12-25T11:07:17.308Z,64.07
2018-12-25T11:08:17.302Z,64.39
2018-12-25T11:09:17.255Z,65.00
2018-12-25T11:10:17.267Z,64.98
2018-12-25T11:11:17.273Z,64.46
2018-12-25T11:12:17.227Z,64.28
2018-12-25T11:13:27.169Z,64.36
2018-12-25T11:14:17.236Z,64.87
2018-12-25T11:15:17.279Z,63.43
2018-12-25T11:16:17.204Z,63.84
2018-12-25T11:17:25.820Z,63.32
2018-12-25T11:18:17.237Z,63.56
2018-12-25T11:20:34.786Z,63.46
2018-12-25T11:22:43.990Z,63.77
2018-12-25T11:23:44.030Z,63.77
2018-12-25T11:24:51.513Z,63.67
2018-12-25T11:25:52.593Z,63.67
2018-12-25T11:26:43.950Z,64.21
2018-12-25T11:27:43.923Z,64.59
2018-12-25T11:28:53.288Z,63.77
2018-12-25T11:29:43.909Z,64.28
2018-12-25T11:31:54.044Z,64.21
2018-12-25T11:32:54.042Z,64.52
2018-12-25T11:33:54.092Z,64.28
2018-12-25T11:34:54.015Z,64.07
2018-12-25T11:35:54.026Z,64.07
2018-12-25T11:36:53.987Z,64.59
2018-12-25T11:37:54.000Z,64.70
2018-12-25T11:38:53.973Z,64.49
2018-12-25T11:39:53.989Z,64.80
2018-12-25T11:40:54.028Z,64.39
2018-12-25T11:41:53.948Z,63.97
2018-12-25T11:42:53.926Z,64.18
2018-12-25T11:43:53.922Z,64.18
2018-12-25T11:44:53.906Z,64.39
2018-12-25T11:45:53.912Z,64.39
2018-12-25T11:46:53.929Z,64.59
2018-12-25T11:47:53.890Z,64.70
2018-12-25T11:48:53.884Z,64.49
2018-12-25T11:49:53.884Z,64.07
2018-12-25T11:50:53.918Z,64.59
2018-12-25T11:51:53.852Z,64.59
2018-12-25T11:52:53.828Z,64.70
2018-12-25T11:53:53.872Z,64.49
2018-12-25T11:54:53.800Z,64.80
2018-12-25T11:55:53.805Z,64.18
2018-12-25T11:56:53.826Z,64.28
2018-12-25T11:57:53.789Z,64.49
2018-12-25T11:58:53.758Z,64.49
2018-12-25T11:59:53.765Z,64.07
2018-12-25T12:00:53.735Z,64.59
2018-12-25T12:01:53.833Z,64.39
2018-12-25T12:03:02.312Z,64.59
2018-12-25T12:03:53.698Z,64.80
2018-12-25T12:04:53.701Z,64.90
2018-12-25T12:06:01.232Z,65.31
2018-12-25T12:06:53.672Z,65.00
2018-12-25T12:07:53.679Z,64.59
2018-12-25T12:08:53.651Z,65.00
2018-12-25T12:09:53.635Z,65.31
2018-12-25T12:10:53.636Z,65.21
2018-12-25T12:11:53.616Z,64.49
2018-12-25T12:12:53.631Z,64.59
2018-12-25T12:13:53.596Z,64.07
2018-12-25T12:14:53.584Z,64.07
2018-12-25T12:15:53.595Z,64.07
2018-12-25T12:16:53.577Z,64.21
2018-12-25T12:17:53.574Z,64.59
2018-12-25T12:18:53.549Z,64.93
2018-12-25T12:19:53.531Z,64.70
2018-12-25T12:20:53.524Z,64.59
2018-12-25T12:21:53.516Z,64.90
2018-12-25T12:22:53.523Z,64.59
2018-12-25T12:23:53.501Z,64.49
2018-12-25T12:24:53.481Z,64.59
2018-12-25T12:25:53.474Z,64.28
2018-12-25T12:26:53.458Z,64.49
2018-12-25T12:27:53.450Z,63.97
2018-12-25T12:28:53.451Z,64.49
2018-12-25T12:29:53.454Z,64.90
2018-12-25T12:30:53.417Z,64.49
2018-12-25T12:31:53.402Z,64.59
2018-12-25T12:32:53.403Z,64.49
2018-12-25T12:33:53.408Z,64.70
2018-12-25T12:34:53.370Z,64.77
2018-12-25T12:35:53.370Z,64.59
2018-12-25T12:36:53.350Z,64.25
2018-12-25T12:37:53.450Z,64.36
2018-12-25T12:38:53.384Z,64.46
2018-12-25T12:39:53.343Z,64.67
2018-12-25T12:40:53.341Z,64.25
2018-12-25T12:41:53.360Z,64.18
2018-12-25T12:42:53.318Z,64.36
2018-12-25T12:43:53.350Z,65.18
2018-12-25T12:44:53.290Z,64.36
2018-12-25T12:45:53.253Z,63.95
2018-12-25T12:46:53.272Z,64.36
2018-12-25T12:47:53.231Z,64.15
2018-12-25T12:48:53.219Z,64.32
2018-12-25T12:49:53.231Z,64.36
2018-12-25T12:50:53.200Z,64.25
2018-12-25T12:51:53.191Z,64.15
2018-12-25T12:52:53.177Z,63.84
2018-12-25T12:53:53.243Z,64.70
2018-12-25T12:54:53.180Z,65.08
2018-12-25T12:55:53.239Z,64.67
2018-12-25T12:56:53.140Z,64.70
2018-12-25T12:57:53.134Z,64.90
2018-12-25T12:58:53.129Z,65.11
2018-12-25T12:59:53.194Z,64.90
2018-12-25T13:00:53.112Z,65.03
2018-12-25T13:01:53.145Z,65.52
2018-12-25T13:02:53.068Z,65.24
2018-12-25T13:03:53.062Z,65.14
2018-12-25T13:04:53.074Z,65.83
2018-12-25T13:05:53.116Z,65.52
2018-12-25T13:06:53.025Z,65.24
2018-12-25T13:07:53.017Z,65.52
2018-12-25T13:08:53.003Z,65.66
2018-12-25T13:09:52.995Z,65.55
2018-12-25T13:10:53.009Z,65.52
2018-12-25T13:11:52.973Z,65.55
2018-12-25T13:12:52.967Z,66.17
2018-12-25T13:13:52.954Z,65.97
2018-12-25T13:14:52.939Z,66.17
2018-12-25T13:15:52.947Z,66.38
2018-12-25T13:16:52.937Z,66.17
2018-12-25T13:17:52.935Z,66.27
2018-12-25T13:18:52.914Z,66.17
2018-12-25T13:19:52.895Z,66.38
2018-12-25T13:20:52.877Z,66.48
2018-12-25T13:21:52.934Z,66.58
2018-12-25T13:22:54.270Z,66.58
2018-12-25T13:23:52.867Z,65.97
2018-12-25T13:24:52.836Z,66.38
2018-12-25T13:25:52.821Z,66.27
2018-12-25T13:26:52.841Z,66.17
2018-12-25T13:27:52.970Z,66.17
2018-12-25T13:28:52.944Z,66.07
2018-12-25T13:29:52.915Z,65.86
2018-12-25T13:30:52.958Z,66.27
2018-12-25T13:31:52.818Z,65.94
2018-12-25T13:32:52.766Z,65.11
2018-12-25T13:33:52.740Z,65.66
2018-12-25T13:34:52.731Z,65.45
2018-12-25T13:35:52.733Z,65.73
2018-12-25T13:36:52.705Z,65.11
2018-12-25T13:37:52.730Z,65.45
2018-12-25T13:38:52.746Z,65.11
2018-12-25T13:39:52.672Z,65.76
2018-12-25T13:40:52.664Z,65.42
2018-12-25T13:41:52.655Z,65.24
2018-12-25T13:42:52.669Z,65.03
2018-12-25T13:43:52.627Z,65.03
2018-12-25T13:44:52.639Z,65.62
2018-12-25T13:45:52.610Z,65.00
2018-12-25T13:46:52.604Z,64.90
2018-12-25T13:47:52.585Z,64.62
2018-12-25T13:48:52.599Z,64.80
2018-12-25T13:49:52.562Z,64.73
2018-12-25T13:50:52.553Z,64.49
2018-12-25T13:51:52.543Z,64.80
2018-12-25T13:52:52.546Z,64.90
2018-12-25T13:53:52.544Z,64.73
2018-12-25T13:54:52.511Z,64.73
2018-12-25T13:55:52.498Z,64.62
2018-12-25T13:56:52.492Z,64.70
2018-12-25T13:57:52.479Z,64.70